createdAt,value
2024-05-09T00:00:18.152Z,9.69
2024-05-09T00:00:53.930Z,9.67
2024-05-09T00:01:25.719Z,9.64
2024-05-09T00:01:57.531Z,9.61
2024-05-09T00:02:29.829Z,9.61
2024-05-09T00:03:01.703Z,9.40
2024-05-09T00:03:33.592Z,9.43
2024-05-09T00:04:05.575Z,9.49
2024-05-09T00:04:37.544Z,9.55
2024-05-09T00:05:12.279Z,9.52
2024-05-09T00:05:44.428Z,9.50
2024-05-09T00:06:16.466Z,9.58
2024-05-09T00:06:48.279Z,9.59
2024-05-09T00:07:20.502Z,9.58
2024-05-09T00:07:52.283Z,9.54
2024-05-09T00:08:24.244Z,9.58
2024-05-09T00:08:56.081Z,9.64
2024-05-09T00:09:27.827Z,9.71
2024-05-09T00:09:59.677Z,9.63
2024-05-09T00:10:36.501Z,9.63
2024-05-09T00:11:10.545Z,9.64
2024-05-09T00:11:42.457Z,9.61
2024-05-09T00:12:14.394Z,9.56
2024-05-09T00:12:46.159Z,9.47
2024-05-09T00:13:17.905Z,9.50
2024-05-09T00:13:49.686Z,9.55
2024-05-09T00:14:21.431Z,9.59
2024-05-09T00:14:53.223Z,9.60
2024-05-09T00:15:24.946Z,9.59
2024-05-09T00:15:56.740Z,9.63
2024-05-09T00:16:28.452Z,9.47
2024-05-09T00:17:00.238Z,9.40
2024-05-09T00:17:32.112Z,9.46
2024-05-09T00:18:05.000Z,9.46
2024-05-09T00:18:37.527Z,9.49
2024-05-09T00:19:09.537Z,9.33
2024-05-09T00:19:43.575Z,9.21
2024-05-09T00:20:20.509Z,9.27
2024-05-09T00:20:56.510Z,9.27
2024-05-09T00:21:28.275Z,9.35
2024-05-09T00:21:59.995Z,9.37
2024-05-09T00:22:32.141Z,9.41
2024-05-09T00:23:04.434Z,9.43
2024-05-09T00:23:36.313Z,9.48
2024-05-09T00:24:08.007Z,9.52
2024-05-09T00:24:39.722Z,9.31
2024-05-09T00:25:11.403Z,9.20
2024-05-09T00:25:43.800Z,9.30
2024-05-09T00:26:17.848Z,9.32
2024-05-09T00:26:49.661Z,9.44
2024-05-09T00:27:21.465Z,9.38
2024-05-09T00:27:53.167Z,9.36
2024-05-09T00:28:25.879Z,9.31
2024-05-09T00:28:57.668Z,9.27
2024-05-09T00:29:29.478Z,9.34
2024-05-09T00:30:01.281Z,9.41
2024-05-09T00:30:35.860Z,9.38
2024-05-09T00:31:08.818Z,9.37
2024-05-09T00:31:40.538Z,9.35
2024-05-09T00:32:12.385Z,9.22
2024-05-09T00:32:44.207Z,9.14
2024-05-09T00:33:16.397Z,9.16
2024-05-09T00:33:48.475Z,9.16
2024-05-09T00:34:20.368Z,9.09
2024-05-09T00:34:52.220Z,9.11
2024-05-09T00:35:24.059Z,9.15
2024-05-09T00:35:55.872Z,9.19
2024-05-09T00:36:27.594Z,9.26
2024-05-09T00:36:59.336Z,9.31
2024-05-09T00:37:31.059Z,9.22
2024-05-09T00:38:02.980Z,9.19
2024-05-09T00:38:34.966Z,9.25
2024-05-09T00:39:06.897Z,9.33
2024-05-09T00:39:38.649Z,9.34
2024-05-09T00:40:18.297Z,9.35
2024-05-09T00:40:54.618Z,9.35
2024-05-09T00:41:26.359Z,9.34
2024-05-09T00:41:59.632Z,9.34
2024-05-09T00:42:31.407Z,9.28
2024-05-09T00:43:03.229Z,9.30
2024-05-09T00:43:34.944Z,9.30
2024-05-09T00:44:06.761Z,9.34
2024-05-09T00:44:39.105Z,9.30
2024-05-09T00:45:11.015Z,9.28
2024-05-09T00:45:43.630Z,9.29
2024-05-09T00:46:15.691Z,9.29
2024-05-09T00:46:47.495Z,9.36
2024-05-09T00:47:19.592Z,9.22
2024-05-09T00:47:51.817Z,9.04
2024-05-09T00:48:23.848Z,9.03
2024-05-09T00:48:55.990Z,8.95
2024-05-09T00:49:28.526Z,9.06
2024-05-09T00:50:01.494Z,8.96
2024-05-09T00:50:36.943Z,8.87
2024-05-09T00:51:09.806Z,8.82
2024-05-09T00:51:42.211Z,8.73
2024-05-09T00:52:13.994Z,8.72
2024-05-09T00:52:46.492Z,8.76
2024-05-09T00:53:19.137Z,8.71
2024-05-09T00:53:51.065Z,8.68
2024-05-09T00:54:23.221Z,8.61
2024-05-09T00:54:56.812Z,8.61
2024-05-09T00:55:28.706Z,8.41
2024-05-09T00:56:01.181Z,8.30
2024-05-09T00:56:35.676Z,8.28
2024-05-09T00:57:07.450Z,8.36
2024-05-09T00:57:39.915Z,8.34
2024-05-09T00:58:13.799Z,8.26
2024-05-09T00:58:45.813Z,8.20
2024-05-09T00:59:18.053Z,8.26
2024-05-09T00:59:50.510Z,8.25
2024-05-09T01:00:30.720Z,8.26
2024-05-09T01:01:08.216Z,8.27
2024-05-09T01:01:40.909Z,8.35
2024-05-09T01:02:13.010Z,8.31
2024-05-09T01:02:45.123Z,8.27
2024-05-09T01:03:17.886Z,8.27
2024-05-09T01:03:51.421Z,8.27
2024-05-09T01:04:23.355Z,8.20
2024-05-09T01:04:55.693Z,8.15
2024-05-09T01:05:27.757Z,8.06
2024-05-09T01:05:59.659Z,8.09
2024-05-09T01:06:31.626Z,8.15
2024-05-09T01:07:03.691Z,8.14
2024-05-09T01:07:35.547Z,8.07
2024-05-09T01:08:07.715Z,8.02
2024-05-09T01:08:39.671Z,7.98
2024-05-09T01:09:11.465Z,8.01
2024-05-09T01:09:43.306Z,8.05
2024-05-09T01:10:21.174Z,8.03
2024-05-09T01:10:59.459Z,8.13
2024-05-09T01:11:38.942Z,8.13
2024-05-09T01:12:10.988Z,8.16
2024-05-09T01:12:42.871Z,8.26
2024-05-09T01:13:14.586Z,8.34
2024-05-09T01:13:46.508Z,8.35
2024-05-09T01:14:18.324Z,8.40
2024-05-09T01:14:50.520Z,8.36
2024-05-09T01:15:22.279Z,8.20
2024-05-09T01:15:54.131Z,8.17
2024-05-09T01:16:25.889Z,8.13
2024-05-09T01:16:57.901Z,8.03
2024-05-09T01:17:31.094Z,8.08
2024-05-09T01:18:13.288Z,8.19
2024-05-09T01:18:45.802Z,8.21
2024-05-09T01:19:23.737Z,8.27
2024-05-09T01:19:55.594Z,8.29
2024-05-09T01:20:36.969Z,8.30
2024-05-09T01:21:13.874Z,8.31
2024-05-09T01:21:45.799Z,8.33
2024-05-09T01:22:17.544Z,8.43
2024-05-09T01:22:49.325Z,8.49
2024-05-09T01:23:21.171Z,8.46
2024-05-09T01:23:53.053Z,8.45
2024-05-09T01:24:24.843Z,8.42
2024-05-09T01:24:56.593Z,8.40
2024-05-09T01:25:28.284Z,8.28
2024-05-09T01:26:00.287Z,8.26
2024-05-09T01:26:32.122Z,8.25
2024-05-09T01:27:04.121Z,8.20
2024-05-09T01:27:35.925Z,8.24
2024-05-09T01:28:07.757Z,8.31
2024-05-09T01:28:39.529Z,8.36
2024-05-09T01:29:11.349Z,8.37
2024-05-09T01:29:43.092Z,8.41
2024-05-09T01:30:20.803Z,8.43
2024-05-09T01:30:53.785Z,8.46
2024-05-09T01:31:25.476Z,8.47
2024-05-09T01:31:59.320Z,8.48
2024-05-09T01:32:31.232Z,8.55
2024-05-09T01:33:03.704Z,8.56
2024-05-09T01:33:35.886Z,8.59
2024-05-09T01:34:07.744Z,8.58
2024-05-09T01:34:39.477Z,8.58
2024-05-09T01:35:11.344Z,8.54
2024-05-09T01:35:43.431Z,8.53
2024-05-09T01:36:15.316Z,8.52
2024-05-09T01:36:47.017Z,8.47
2024-05-09T01:37:18.741Z,8.46
2024-05-09T01:37:50.971Z,8.44
2024-05-09T01:38:22.824Z,8.43
2024-05-09T01:38:54.584Z,8.36
2024-05-09T01:39:26.279Z,8.41
2024-05-09T01:39:57.966Z,8.40
2024-05-09T01:40:37.131Z,8.41
2024-05-09T01:41:11.472Z,8.42
2024-05-09T01:41:43.273Z,8.40
2024-05-09T01:42:16.634Z,8.40
2024-05-09T01:42:48.368Z,8.42
2024-05-09T01:43:20.127Z,8.43
2024-05-09T01:43:52.099Z,8.43
2024-05-09T01:44:23.985Z,8.44
2024-05-09T01:44:55.885Z,8.44
2024-05-09T01:45:27.582Z,8.49
2024-05-09T01:45:59.394Z,8.42
2024-05-09T01:46:31.089Z,8.22
2024-05-09T01:47:02.948Z,8.16
2024-05-09T01:47:35.192Z,8.02
2024-05-09T01:48:08.221Z,7.86
2024-05-09T01:48:40.296Z,7.89
2024-05-09T01:49:12.296Z,7.91
2024-05-09T01:49:44.326Z,7.90
2024-05-09T01:50:16.693Z,7.94
2024-05-09T01:50:48.552Z,8.08
2024-05-09T01:51:20.341Z,8.07
2024-05-09T01:51:52.116Z,8.11
2024-05-09T01:52:23.946Z,8.00
2024-05-09T01:52:55.764Z,8.01
2024-05-09T01:53:27.493Z,7.91
2024-05-09T01:53:59.261Z,7.84
2024-05-09T01:54:30.952Z,7.74
2024-05-09T01:55:05.836Z,7.83
2024-05-09T01:55:38.582Z,7.87
2024-05-09T01:56:10.792Z,7.97
2024-05-09T01:56:42.617Z,7.92
2024-05-09T01:57:14.401Z,7.93
2024-05-09T01:57:46.110Z,7.88
2024-05-09T01:58:17.964Z,7.78
2024-05-09T01:58:50.415Z,7.62
2024-05-09T01:59:22.392Z,7.52
2024-05-09T01:59:54.439Z,7.53
2024-05-09T02:00:36.940Z,7.61
2024-05-09T02:01:12.520Z,7.48
2024-05-09T02:01:56.308Z,7.42
2024-05-09T02:02:29.592Z,7.40
2024-05-09T02:03:01.753Z,7.51
2024-05-09T02:03:33.937Z,7.46
2024-05-09T02:04:06.379Z,7.46
2024-05-09T02:04:38.741Z,7.46
2024-05-09T02:05:10.786Z,7.35
2024-05-09T02:05:43.155Z,7.32
2024-05-09T02:06:15.054Z,7.32
2024-05-09T02:06:46.880Z,7.30
2024-05-09T02:07:18.696Z,7.31
2024-05-09T02:07:50.503Z,7.30
2024-05-09T02:08:22.475Z,7.32
2024-05-09T02:08:54.341Z,7.32
2024-05-09T02:09:26.162Z,7.34
2024-05-09T02:09:57.849Z,7.33
2024-05-09T02:10:32.719Z,7.30
2024-05-09T02:11:05.317Z,7.31
2024-05-09T02:11:42.549Z,7.26
2024-05-09T02:12:14.492Z,7.27
2024-05-09T02:12:46.422Z,7.24
2024-05-09T02:13:18.299Z,7.22
2024-05-09T02:13:50.192Z,7.21
2024-05-09T02:14:22.009Z,7.22
2024-05-09T02:14:53.755Z,7.21
2024-05-09T02:15:25.520Z,7.37
2024-05-09T02:15:57.290Z,7.41
2024-05-09T02:16:29.127Z,7.50
2024-05-09T02:17:00.856Z,7.40
2024-05-09T02:17:32.922Z,7.38
2024-05-09T02:18:05.499Z,7.49
2024-05-09T02:18:37.384Z,7.47
2024-05-09T02:19:09.362Z,7.41
2024-05-09T02:19:41.112Z,7.33
2024-05-09T02:20:18.912Z,7.31
2024-05-09T02:20:58.972Z,7.43
2024-05-09T02:21:34.440Z,7.42
2024-05-09T02:22:06.191Z,7.32
2024-05-09T02:22:37.978Z,7.34
2024-05-09T02:23:09.962Z,7.46
2024-05-09T02:23:41.904Z,7.45
2024-05-09T02:24:13.663Z,7.46
2024-05-09T02:24:45.496Z,7.49
2024-05-09T02:25:20.633Z,7.51
2024-05-09T02:25:52.427Z,7.43
2024-05-09T02:26:24.261Z,7.42
2024-05-09T02:26:56.036Z,7.34
2024-05-09T02:27:27.723Z,7.29
2024-05-09T02:27:59.666Z,7.19
2024-05-09T02:28:31.456Z,7.15
2024-05-09T02:29:03.244Z,7.12
2024-05-09T02:29:35.043Z,7.06
2024-05-09T02:30:18.458Z,7.10
2024-05-09T02:30:57.587Z,7.18
2024-05-09T02:31:29.365Z,7.17
2024-05-09T02:32:01.231Z,7.06
2024-05-09T02:32:33.237Z,7.09
2024-05-09T02:33:05.688Z,7.08
2024-05-09T02:33:38.100Z,7.04
2024-05-09T02:34:10.102Z,7.07
2024-05-09T02:34:41.905Z,7.19
2024-05-09T02:35:13.877Z,7.16
2024-05-09T02:35:45.750Z,7.15
2024-05-09T02:36:17.885Z,7.11
2024-05-09T02:36:49.783Z,7.06
2024-05-09T02:37:21.474Z,6.97
2024-05-09T02:37:53.226Z,6.94
2024-05-09T02:38:24.943Z,6.97
2024-05-09T02:38:56.657Z,6.85
2024-05-09T02:39:28.376Z,6.82
2024-05-09T02:40:00.121Z,6.91
2024-05-09T02:40:37.059Z,6.95
2024-05-09T02:41:10.872Z,6.87
2024-05-09T02:41:42.639Z,6.83
2024-05-09T02:42:14.374Z,6.89
2024-05-09T02:42:47.241Z,6.91
2024-05-09T02:43:19.011Z,6.93
2024-05-09T02:43:50.729Z,7.01
2024-05-09T02:44:22.558Z,7.03
2024-05-09T02:44:54.438Z,6.95
2024-05-09T02:45:26.218Z,6.93
2024-05-09T02:45:58.001Z,6.86
2024-05-09T02:46:29.740Z,6.83
2024-05-09T02:47:01.556Z,6.76
2024-05-09T02:47:33.384Z,6.77
2024-05-09T02:48:06.094Z,6.83
2024-05-09T02:48:38.188Z,6.78
2024-05-09T02:49:10.187Z,6.74
2024-05-09T02:49:41.951Z,6.70
2024-05-09T02:50:19.293Z,6.66
2024-05-09T02:50:54.937Z,6.62
2024-05-09T02:51:26.660Z,6.69
2024-05-09T02:51:58.380Z,6.70
2024-05-09T02:52:30.134Z,6.64
2024-05-09T02:53:01.869Z,6.59
2024-05-09T02:53:33.766Z,6.57
2024-05-09T02:54:07.743Z,6.60
2024-05-09T02:54:39.442Z,6.55
2024-05-09T02:55:11.189Z,6.58
2024-05-09T02:55:43.367Z,6.65
2024-05-09T02:56:15.301Z,6.69
2024-05-09T02:56:47.210Z,6.73
2024-05-09T02:57:18.971Z,6.83
2024-05-09T02:57:50.809Z,6.84
2024-05-09T02:58:22.570Z,6.76
2024-05-09T02:58:54.344Z,6.78
2024-05-09T02:59:26.340Z,6.74
2024-05-09T02:59:58.122Z,6.70
2024-05-09T03:00:38.084Z,6.76
2024-05-09T03:01:12.796Z,6.77
2024-05-09T03:01:45.075Z,6.77
2024-05-09T03:02:16.954Z,6.73
2024-05-09T03:02:48.821Z,6.73
2024-05-09T03:03:21.112Z,6.72
2024-05-09T03:03:53.436Z,6.70
2024-05-09T03:04:25.337Z,6.69
2024-05-09T03:04:57.195Z,6.68
2024-05-09T03:05:29.148Z,6.69
2024-05-09T03:06:02.268Z,6.64
2024-05-09T03:06:34.017Z,6.64
2024-05-09T03:07:05.744Z,6.71
2024-05-09T03:07:37.626Z,6.73
2024-05-09T03:08:09.807Z,6.70
2024-05-09T03:08:45.921Z,6.68
2024-05-09T03:09:17.946Z,6.73
2024-05-09T03:09:49.699Z,6.72
2024-05-09T03:10:25.658Z,6.82
2024-05-09T03:11:00.470Z,6.83
2024-05-09T03:11:32.303Z,6.80
2024-05-09T03:12:04.691Z,6.85
2024-05-09T03:12:39.145Z,6.91
2024-05-09T03:13:15.017Z,6.67
2024-05-09T03:13:47.794Z,6.51
2024-05-09T03:14:19.655Z,6.53
2024-05-09T03:14:51.636Z,6.42
2024-05-09T03:15:23.356Z,6.38
2024-05-09T03:15:55.098Z,6.42
2024-05-09T03:16:26.897Z,6.50
2024-05-09T03:16:58.599Z,6.53
2024-05-09T03:17:30.602Z,6.55
2024-05-09T03:18:03.252Z,6.56
2024-05-09T03:18:35.183Z,6.48
2024-05-09T03:19:07.040Z,6.48
2024-05-09T03:19:38.999Z,6.46
2024-05-09T03:20:17.558Z,6.53
2024-05-09T03:20:55.348Z,6.54
2024-05-09T03:21:27.150Z,6.47
2024-05-09T03:21:58.916Z,6.47
2024-05-09T03:22:30.617Z,6.43
2024-05-09T03:23:02.855Z,6.41
2024-05-09T03:23:40.770Z,6.33
2024-05-09T03:24:12.571Z,6.40
2024-05-09T03:24:44.275Z,6.38
2024-05-09T03:25:16.021Z,6.49
2024-05-09T03:25:47.834Z,6.45
2024-05-09T03:26:19.742Z,6.38
2024-05-09T03:26:51.538Z,6.38
2024-05-09T03:27:24.912Z,6.35
2024-05-09T03:27:56.753Z,6.41
2024-05-09T03:28:28.514Z,6.40
2024-05-09T03:29:00.515Z,6.43
2024-05-09T03:29:32.366Z,6.48
2024-05-09T03:30:07.301Z,6.56
2024-05-09T03:30:42.375Z,6.44
2024-05-09T03:31:18.387Z,6.31
2024-05-09T03:31:50.189Z,6.27
2024-05-09T03:32:22.137Z,6.33
2024-05-09T03:32:54.292Z,6.39
2024-05-09T03:33:26.555Z,6.39
2024-05-09T03:33:58.630Z,6.39
2024-05-09T03:34:30.428Z,6.39
2024-05-09T03:35:02.237Z,6.41
2024-05-09T03:35:34.118Z,6.44
2024-05-09T03:36:09.111Z,6.61
2024-05-09T03:36:43.222Z,6.63
2024-05-09T03:37:14.914Z,6.62
2024-05-09T03:37:46.843Z,6.64
2024-05-09T03:38:18.701Z,6.67
2024-05-09T03:38:51.041Z,6.74
2024-05-09T03:39:22.786Z,6.80
2024-05-09T03:39:54.698Z,6.85
2024-05-09T03:40:29.172Z,6.91
2024-05-09T03:41:02.662Z,6.93
2024-05-09T03:41:34.564Z,6.55
2024-05-09T03:42:06.433Z,6.57
2024-05-09T03:42:41.676Z,6.54
2024-05-09T03:43:13.761Z,6.58
2024-05-09T03:43:45.557Z,6.53
2024-05-09T03:44:17.809Z,6.47
2024-05-09T03:44:49.785Z,6.43
2024-05-09T03:45:21.862Z,6.38
2024-05-09T03:45:53.642Z,6.36
2024-05-09T03:46:25.351Z,6.34
2024-05-09T03:46:57.107Z,6.28
2024-05-09T03:47:28.890Z,6.22
2024-05-09T03:48:00.979Z,6.20
2024-05-09T03:48:35.157Z,6.18
2024-05-09T03:49:08.073Z,6.17
2024-05-09T03:49:40.391Z,6.13
2024-05-09T03:50:18.488Z,6.15
2024-05-09T03:50:57.649Z,6.10
2024-05-09T03:51:30.070Z,6.07
2024-05-09T03:52:05.265Z,6.11
2024-05-09T03:52:37.027Z,6.16
2024-05-09T03:53:13.039Z,6.15
2024-05-09T03:53:44.952Z,6.17
2024-05-09T03:54:16.694Z,6.19
2024-05-09T03:54:48.508Z,6.19
2024-05-09T03:55:20.223Z,6.14
2024-05-09T03:55:52.018Z,6.11
2024-05-09T03:56:24.047Z,6.12
2024-05-09T03:56:55.801Z,6.13
2024-05-09T03:57:27.500Z,6.17
2024-05-09T03:57:59.439Z,6.17
2024-05-09T03:58:31.286Z,6.20
2024-05-09T03:59:03.126Z,6.17
2024-05-09T03:59:34.932Z,6.25
2024-05-09T04:00:12.210Z,6.25
2024-05-09T04:00:49.793Z,6.23
2024-05-09T04:01:21.693Z,6.22
2024-05-09T04:01:53.480Z,6.25
2024-05-09T04:02:25.370Z,6.23
2024-05-09T04:02:59.253Z,6.22
2024-05-09T04:03:31.565Z,6.22
2024-05-09T04:04:03.421Z,6.21
2024-05-09T04:04:35.254Z,6.21
2024-05-09T04:05:07.051Z,6.15
2024-05-09T04:05:43.878Z,6.17
2024-05-09T04:06:23.705Z,6.21
2024-05-09T04:06:55.408Z,6.24
2024-05-09T04:07:27.138Z,6.28
2024-05-09T04:07:58.969Z,6.25
2024-05-09T04:08:30.779Z,6.31
2024-05-09T04:09:02.555Z,6.29
2024-05-09T04:09:34.296Z,6.29
2024-05-09T04:10:09.018Z,6.35
2024-05-09T04:10:43.095Z,6.39
2024-05-09T04:11:14.953Z,6.58
2024-05-09T04:11:46.863Z,6.48
2024-05-09T04:12:18.829Z,6.44
2024-05-09T04:12:53.309Z,6.45
2024-05-09T04:13:25.018Z,6.51
2024-05-09T04:13:56.805Z,6.44
2024-05-09T04:14:28.779Z,6.39
2024-05-09T04:15:00.897Z,6.38
2024-05-09T04:15:33.121Z,6.43
2024-05-09T04:16:05.219Z,6.45
2024-05-09T04:16:36.916Z,6.44
2024-05-09T04:17:08.679Z,6.51
2024-05-09T04:17:40.739Z,6.54
2024-05-09T04:18:14.149Z,6.58
2024-05-09T04:18:46.204Z,6.60
2024-05-09T04:19:18.294Z,6.63
2024-05-09T04:19:50.122Z,6.77
2024-05-09T04:20:32.941Z,6.70
2024-05-09T04:21:10.137Z,6.72
2024-05-09T04:21:42.043Z,6.73
2024-05-09T04:22:13.858Z,6.74
2024-05-09T04:22:45.620Z,6.73
2024-05-09T04:23:17.412Z,6.65
2024-05-09T04:23:49.273Z,6.55
2024-05-09T04:24:21.165Z,6.58
2024-05-09T04:24:53.106Z,6.63
2024-05-09T04:25:24.809Z,6.66
2024-05-09T04:25:56.652Z,6.66
2024-05-09T04:26:28.473Z,6.71
2024-05-09T04:27:00.332Z,6.76
2024-05-09T04:27:32.124Z,6.75
2024-05-09T04:28:04.073Z,6.80
2024-05-09T04:28:35.812Z,6.83
2024-05-09T04:29:07.949Z,6.89
2024-05-09T04:29:40.802Z,7.00
2024-05-09T04:30:21.581Z,7.04
2024-05-09T04:31:02.026Z,7.27
2024-05-09T04:31:36.712Z,7.42
2024-05-09T04:32:08.743Z,7.50
2024-05-09T04:32:40.719Z,7.47
2024-05-09T04:33:15.092Z,7.51
2024-05-09T04:33:47.360Z,7.54
2024-05-09T04:34:19.346Z,7.57
2024-05-09T04:34:51.320Z,7.57
2024-05-09T04:35:23.241Z,7.52
2024-05-09T04:35:55.082Z,7.39
2024-05-09T04:36:26.823Z,7.31
2024-05-09T04:36:58.521Z,7.21
2024-05-09T04:37:30.588Z,7.26
2024-05-09T04:38:02.436Z,7.18
2024-05-09T04:38:34.428Z,7.18
2024-05-09T04:39:06.290Z,7.22
2024-05-09T04:39:38.022Z,7.15
2024-05-09T04:40:17.196Z,7.11
2024-05-09T04:40:55.465Z,7.14
2024-05-09T04:41:27.302Z,7.20
2024-05-09T04:41:59.029Z,7.28
2024-05-09T04:42:30.856Z,7.45
2024-05-09T04:43:06.897Z,7.64
2024-05-09T04:43:39.288Z,7.82
2024-05-09T04:44:11.010Z,7.73
2024-05-09T04:44:42.734Z,7.82
2024-05-09T04:45:14.531Z,7.90
2024-05-09T04:45:46.492Z,7.97
2024-05-09T04:46:18.281Z,7.94
2024-05-09T04:46:50.185Z,8.01
2024-05-09T04:47:22.064Z,7.91
2024-05-09T04:47:54.943Z,7.75
2024-05-09T04:48:27.141Z,7.81
2024-05-09T04:48:58.999Z,7.72
2024-05-09T04:49:30.878Z,7.60
2024-05-09T04:50:02.795Z,7.70
2024-05-09T04:50:38.182Z,7.68
2024-05-09T04:51:11.352Z,7.71
2024-05-09T04:51:43.153Z,7.72
2024-05-09T04:52:14.884Z,7.74
2024-05-09T04:52:46.671Z,7.85
2024-05-09T04:53:18.688Z,8.01
2024-05-09T04:53:50.534Z,7.92
2024-05-09T04:54:30.380Z,7.95
2024-05-09T04:55:07.785Z,8.22
2024-05-09T04:55:40.454Z,8.22
2024-05-09T04:56:12.528Z,8.21
2024-05-09T04:56:44.334Z,8.26
2024-05-09T04:57:16.182Z,8.31
2024-05-09T04:57:47.974Z,8.35
2024-05-09T04:58:20.653Z,8.41
2024-05-09T04:58:52.441Z,8.54
2024-05-09T04:59:24.336Z,8.68
2024-05-09T04:59:56.489Z,8.67
2024-05-09T05:00:35.800Z,8.62
2024-05-09T05:01:10.726Z,8.81
2024-05-09T05:01:42.450Z,8.60
2024-05-09T05:02:14.386Z,8.58
2024-05-09T05:02:46.323Z,8.63
2024-05-09T05:03:18.449Z,8.68
2024-05-09T05:03:50.492Z,8.90
2024-05-09T05:04:22.491Z,9.04
2024-05-09T05:04:54.534Z,8.67
2024-05-09T05:05:26.528Z,8.66
2024-05-09T05:05:58.398Z,8.71
2024-05-09T05:06:30.318Z,8.70
2024-05-09T05:07:03.005Z,8.64
2024-05-09T05:07:34.914Z,8.69
2024-05-09T05:08:15.052Z,8.64
2024-05-09T05:08:47.147Z,8.49
2024-05-09T05:09:18.987Z,8.60
2024-05-09T05:09:50.886Z,8.55
2024-05-09T05:10:29.535Z,8.56
2024-05-09T05:11:07.176Z,8.57
2024-05-09T05:11:39.194Z,8.75
2024-05-09T05:12:31.122Z,8.94
2024-05-09T05:13:18.087Z,8.94
2024-05-09T05:13:50.773Z,8.85
2024-05-09T05:14:22.545Z,8.79
2024-05-09T05:14:54.321Z,8.81
2024-05-09T05:15:26.028Z,8.85
2024-05-09T05:15:58.480Z,8.81
2024-05-09T05:16:30.534Z,8.79
2024-05-09T05:17:02.306Z,8.89
2024-05-09T05:17:34.416Z,8.72
2024-05-09T05:18:06.577Z,8.76
2024-05-09T05:18:38.824Z,8.76
2024-05-09T05:19:13.516Z,8.96
2024-05-09T05:19:47.052Z,9.14
2024-05-09T05:20:27.352Z,9.19
2024-05-09T05:21:05.039Z,9.16
2024-05-09T05:21:36.841Z,9.24
2024-05-09T05:22:08.669Z,9.21
2024-05-09T05:22:43.171Z,9.12
2024-05-09T05:23:16.901Z,9.04
2024-05-09T05:23:48.980Z,9.20
2024-05-09T05:24:20.711Z,9.20
2024-05-09T05:24:52.455Z,9.04
2024-05-09T05:25:24.208Z,9.10
2024-05-09T05:25:56.109Z,9.17
2024-05-09T05:26:27.976Z,9.34
2024-05-09T05:26:59.735Z,9.46
2024-05-09T05:27:31.511Z,9.53
2024-05-09T05:28:03.538Z,8.99
2024-05-09T05:28:35.235Z,9.20
2024-05-09T05:29:08.291Z,9.27
2024-05-09T05:29:40.035Z,9.25
2024-05-09T05:30:17.869Z,9.17
2024-05-09T05:30:53.309Z,9.46
2024-05-09T05:31:25.106Z,9.62
2024-05-09T05:31:57.154Z,9.56
2024-05-09T05:32:29.178Z,9.48
2024-05-09T05:33:01.366Z,9.52
2024-05-09T05:33:33.570Z,9.38
2024-05-09T05:34:05.373Z,9.26
2024-05-09T05:34:37.163Z,9.31
2024-05-09T05:35:09.032Z,9.35
2024-05-09T05:35:41.683Z,9.41
2024-05-09T05:36:13.449Z,9.64
2024-05-09T05:36:45.204Z,9.66
2024-05-09T05:37:16.975Z,9.57
2024-05-09T05:37:48.728Z,9.58
2024-05-09T05:38:23.868Z,9.52
2024-05-09T05:38:58.058Z,9.51
2024-05-09T05:39:29.943Z,9.54
2024-05-09T05:40:01.782Z,9.88
2024-05-09T05:40:37.096Z,9.65
2024-05-09T05:41:10.317Z,9.79
2024-05-09T05:41:42.144Z,9.83
2024-05-09T05:42:13.893Z,9.83
2024-05-09T05:42:45.655Z,9.94
2024-05-09T05:43:18.323Z,9.97
2024-05-09T05:43:50.162Z,9.98
2024-05-09T05:44:22.041Z,9.95
2024-05-09T05:44:53.953Z,9.93
2024-05-09T05:45:26.019Z,10.09
2024-05-09T05:45:58.353Z,10.14
2024-05-09T05:46:30.210Z,10.25
2024-05-09T05:47:02.014Z,10.35
2024-05-09T05:47:33.861Z,10.41
2024-05-09T05:48:09.198Z,10.46
2024-05-09T05:48:41.215Z,10.46
2024-05-09T05:49:13.100Z,10.37
2024-05-09T05:49:44.911Z,10.31
2024-05-09T05:50:24.699Z,10.50
2024-05-09T05:51:05.809Z,10.91
2024-05-09T05:51:37.696Z,10.98
2024-05-09T05:52:11.214Z,10.93
2024-05-09T05:52:43.545Z,10.82
2024-05-09T05:53:15.765Z,10.90
2024-05-09T05:53:47.774Z,10.73
2024-05-09T05:54:19.548Z,10.70
2024-05-09T05:54:52.069Z,10.74
2024-05-09T05:55:23.794Z,10.73
2024-05-09T05:55:55.720Z,10.67
2024-05-09T05:56:27.655Z,10.60
2024-05-09T05:56:59.502Z,10.45
2024-05-09T05:57:31.330Z,10.42
2024-05-09T05:58:03.282Z,10.37
2024-05-09T05:58:34.943Z,10.33
2024-05-09T05:59:06.711Z,10.38
2024-05-09T05:59:38.572Z,10.47
2024-05-09T06:00:17.953Z,10.55
2024-05-09T06:00:53.778Z,10.42
2024-05-09T06:01:25.664Z,10.58
2024-05-09T06:01:57.530Z,10.51
2024-05-09T06:02:29.440Z,10.10
2024-05-09T06:03:01.296Z,10.51
2024-05-09T06:03:33.312Z,10.10
2024-05-09T06:04:05.190Z,10.37
2024-05-09T06:04:36.994Z,10.40
2024-05-09T06:05:09.826Z,10.55
2024-05-09T06:05:46.177Z,10.74
2024-05-09T06:06:18.066Z,10.67
2024-05-09T06:06:49.900Z,10.71
2024-05-09T06:07:21.620Z,10.89
2024-05-09T06:07:53.407Z,10.89
2024-05-09T06:08:27.095Z,10.88
2024-05-09T06:09:00.539Z,10.86
2024-05-09T06:09:32.344Z,11.02
2024-05-09T06:10:09.225Z,11.13
2024-05-09T06:10:43.191Z,11.30
2024-05-09T06:11:15.043Z,11.30
2024-05-09T06:11:47.118Z,11.39
2024-05-09T06:12:20.119Z,11.43
2024-05-09T06:12:51.958Z,11.27
2024-05-09T06:13:23.734Z,11.19
2024-05-09T06:13:55.494Z,11.20
2024-05-09T06:14:27.300Z,11.44
2024-05-09T06:15:00.553Z,11.24
2024-05-09T06:15:32.291Z,11.25
2024-05-09T06:16:05.067Z,11.29
2024-05-09T06:16:36.830Z,11.29
2024-05-09T06:17:08.674Z,11.33
2024-05-09T06:17:40.548Z,11.45
2024-05-09T06:18:14.184Z,11.69
2024-05-09T06:18:47.017Z,11.59
2024-05-09T06:19:19.687Z,11.34
2024-05-09T06:19:51.715Z,11.50
2024-05-09T06:20:31.046Z,11.71
2024-05-09T06:21:06.842Z,11.53
2024-05-09T06:21:38.664Z,11.61
2024-05-09T06:22:11.156Z,11.52
2024-05-09T06:22:43.002Z,11.56
2024-05-09T06:23:15.182Z,11.58
2024-05-09T06:23:47.990Z,11.50
2024-05-09T06:24:19.930Z,11.60
2024-05-09T06:24:51.750Z,11.73
2024-05-09T06:25:23.514Z,11.95
2024-05-09T06:25:55.393Z,12.25
2024-05-09T06:26:27.277Z,11.86
2024-05-09T06:26:59.355Z,11.93
2024-05-09T06:27:31.118Z,11.94
2024-05-09T06:28:03.221Z,12.00
2024-05-09T06:28:35.595Z,11.81
2024-05-09T06:29:07.383Z,11.93
2024-05-09T06:29:39.718Z,12.05
2024-05-09T06:30:24.838Z,12.02
2024-05-09T06:31:01.781Z,11.92
2024-05-09T06:31:33.727Z,12.42
2024-05-09T06:32:07.113Z,12.64
2024-05-09T06:32:38.983Z,12.42
2024-05-09T06:33:13.377Z,12.45
2024-05-09T06:33:47.364Z,12.41
2024-05-09T06:34:19.560Z,12.37
2024-05-09T06:34:51.472Z,12.66
2024-05-09T06:35:23.360Z,12.78
2024-05-09T06:35:59.325Z,12.95
2024-05-09T06:36:31.035Z,12.72
2024-05-09T06:37:02.816Z,12.82
2024-05-09T06:37:34.591Z,12.65
2024-05-09T06:38:09.016Z,12.66
2024-05-09T06:38:41.192Z,12.61
2024-05-09T06:39:12.925Z,13.05
2024-05-09T06:39:46.120Z,13.08
2024-05-09T06:40:25.354Z,13.01
2024-05-09T06:41:01.552Z,13.11
2024-05-09T06:41:33.471Z,13.47
2024-05-09T06:42:05.328Z,13.69
2024-05-09T06:42:37.068Z,13.56
2024-05-09T06:43:17.679Z,13.65
2024-05-09T06:43:51.187Z,13.36
2024-05-09T06:44:23.162Z,13.27
2024-05-09T06:44:55.064Z,13.31
2024-05-09T06:45:26.757Z,13.15
2024-05-09T06:45:58.504Z,13.21
2024-05-09T06:46:30.295Z,13.46
2024-05-09T06:47:02.162Z,12.96
2024-05-09T06:47:34.215Z,13.00
2024-05-09T06:48:06.937Z,13.19
2024-05-09T06:48:39.112Z,13.23
2024-05-09T06:49:12.435Z,13.29
2024-05-09T06:49:44.316Z,13.05
2024-05-09T06:50:23.408Z,13.04
2024-05-09T06:50:59.018Z,12.99
2024-05-09T06:51:30.757Z,12.77
2024-05-09T06:52:02.500Z,12.77
2024-05-09T06:52:34.204Z,12.76
2024-05-09T06:53:06.081Z,12.86
2024-05-09T06:53:39.599Z,12.78
2024-05-09T06:54:12.599Z,13.03
2024-05-09T06:54:44.290Z,12.69
2024-05-09T06:55:16.147Z,13.12
2024-05-09T06:55:47.866Z,13.15
2024-05-09T06:56:20.017Z,13.18
2024-05-09T06:56:51.739Z,13.15
2024-05-09T06:57:23.657Z,13.10
2024-05-09T06:57:55.416Z,13.44
2024-05-09T06:58:27.187Z,13.55
2024-05-09T06:58:58.901Z,13.73
2024-05-09T06:59:30.833Z,13.91
2024-05-09T07:00:02.957Z,14.09
2024-05-09T07:00:39.398Z,14.19
2024-05-09T07:01:13.044Z,14.15
2024-05-09T07:01:45.358Z,14.16
2024-05-09T07:02:17.210Z,14.21
2024-05-09T07:02:49.081Z,14.67
2024-05-09T07:03:21.152Z,14.57
2024-05-09T07:03:53.053Z,14.75
2024-05-09T07:04:25.046Z,14.74
2024-05-09T07:04:57.011Z,14.64
2024-05-09T07:05:29.607Z,14.74
2024-05-09T07:06:01.470Z,14.82
2024-05-09T07:06:33.272Z,15.01
2024-05-09T07:07:07.419Z,15.39
2024-05-09T07:07:39.197Z,15.80
2024-05-09T07:08:11.467Z,15.96
2024-05-09T07:08:43.296Z,16.05
2024-05-09T07:09:15.066Z,16.61
2024-05-09T07:09:46.786Z,16.80
2024-05-09T07:10:25.756Z,16.38
2024-05-09T07:11:04.555Z,16.46
2024-05-09T07:11:37.621Z,16.85
2024-05-09T07:12:09.556Z,17.29
2024-05-09T07:12:41.335Z,17.33
2024-05-09T07:13:15.068Z,17.90
2024-05-09T07:13:47.284Z,17.94
2024-05-09T07:14:19.112Z,17.69